createdAt,value
2022-10-19T00:01:16.685Z,11.75
2022-10-19T00:03:45.329Z,12.20
2022-10-19T00:06:30.515Z,12.65
2022-10-19T00:09:02.304Z,12.10
2022-10-19T00:11:30.629Z,11.80
2022-10-19T00:13:58.678Z,12.20
2022-10-19T00:16:28.503Z,14.10
2022-10-19T00:19:02.868Z,14.75
2022-10-19T00:21:30.839Z,13.88
2022-10-19T00:23:59.880Z,12.63
2022-10-19T00:26:26.942Z,13.88
2022-10-19T00:28:55.559Z,12.90
2022-10-19T00:31:24.782Z,13.52
2022-10-19T00:33:52.713Z,14.10
2022-10-19T00:36:27.025Z,13.50
2022-10-19T00:38:55.781Z,13.25
2022-10-19T00:41:26.411Z,13.30
2022-10-19T00:43:59.353Z,13.43
2022-10-19T00:46:30.116Z,13.40
2022-10-19T00:49:07.105Z,14.13
2022-10-19T00:51:40.690Z,14.00
2022-10-19T00:54:09.098Z,14.50
2022-10-19T00:56:39.957Z,13.65
2022-10-19T00:59:09.163Z,15.57
2022-10-19T01:01:37.016Z,14.45
2022-10-19T01:04:05.005Z,15.75
2022-10-19T01:06:34.358Z,15.85
2022-10-19T01:09:03.454Z,15.98
2022-10-19T01:11:48.966Z,17.00
2022-10-19T01:14:21.894Z,16.35
2022-10-19T01:17:07.628Z,17.53
2022-10-19T01:20:12.011Z,15.82
2022-10-19T01:23:17.370Z,17.15
2022-10-19T01:26:12.847Z,17.17
2022-10-19T01:29:18.157Z,17.65
2022-10-19T01:31:54.668Z,17.60
2022-10-19T01:34:32.998Z,18.17
2022-10-19T01:37:23.752Z,17.95
2022-10-19T01:40:22.882Z,18.85
2022-10-19T01:43:00.358Z,18.42
2022-10-19T01:45:42.960Z,18.77
2022-10-19T01:48:19.450Z,19.55
2022-10-19T01:50:53.738Z,20.38
2022-10-19T01:53:23.493Z,20.77
2022-10-19T01:55:52.518Z,20.58
2022-10-19T01:58:26.950Z,20.38
2022-10-19T02:00:57.550Z,20.13
2022-10-19T02:03:26.195Z,21.25
2022-10-19T02:05:55.148Z,20.10
2022-10-19T02:08:31.686Z,20.65
2022-10-19T02:11:01.270Z,22.17
2022-10-19T02:13:30.963Z,22.50
2022-10-19T02:16:02.343Z,21.80
2022-10-19T02:18:36.723Z,20.55
2022-10-19T02:21:08.014Z,20.13
2022-10-19T02:23:36.125Z,20.83
2022-10-19T02:26:04.714Z,20.25
2022-10-19T02:28:33.315Z,19.55
2022-10-19T02:31:01.622Z,18.95
2022-10-19T02:33:30.009Z,18.33
2022-10-19T02:35:58.031Z,18.13
2022-10-19T02:38:26.587Z,19.58
2022-10-19T02:41:43.043Z,18.48
2022-10-19T02:44:48.237Z,19.90
2022-10-19T02:47:36.586Z,19.92
2022-10-19T02:50:11.062Z,20.27
2022-10-19T02:52:39.498Z,20.05
2022-10-19T02:55:08.095Z,19.75
2022-10-19T02:57:35.306Z,19.42
2022-10-19T03:00:04.170Z,20.92
2022-10-19T03:02:31.145Z,21.23
2022-10-19T03:04:58.150Z,21.02
2022-10-19T03:07:25.106Z,21.17
2022-10-19T03:09:52.199Z,22.75
2022-10-19T03:12:20.255Z,22.92
2022-10-19T03:14:48.356Z,23.13
2022-10-19T03:17:15.380Z,22.17
2022-10-19T03:19:42.397Z,24.35
2022-10-19T03:22:09.386Z,24.15
2022-10-19T03:24:36.332Z,23.38
2022-10-19T03:27:03.380Z,23.95
2022-10-19T03:29:30.341Z,22.65
2022-10-19T03:31:58.288Z,23.85
2022-10-19T03:34:25.310Z,23.15
2022-10-19T03:36:52.335Z,23.17
2022-10-19T03:39:20.272Z,25.05
2022-10-19T03:41:47.233Z,24.90
2022-10-19T03:44:14.202Z,25.02
2022-10-19T03:46:42.256Z,25.15
2022-10-19T03:49:12.298Z,26.08
2022-10-19T03:51:39.298Z,26.38
2022-10-19T03:54:08.464Z,27.48
2022-10-19T03:56:36.410Z,25.45
2022-10-19T03:59:05.503Z,28.08
2022-10-19T04:01:41.716Z,27.85
2022-10-19T04:04:12.764Z,28.20
2022-10-19T04:06:41.952Z,27.52
2022-10-19T04:09:13.503Z,29.27
2022-10-19T04:11:41.316Z,30.15
2022-10-19T04:14:18.966Z,29.55
2022-10-19T04:16:54.271Z,29.33
2022-10-19T04:19:22.796Z,30.45
2022-10-19T04:21:50.161Z,30.23
2022-10-19T04:24:19.075Z,28.85
2022-10-19T04:26:48.942Z,30.08
2022-10-19T04:29:17.660Z,30.05
2022-10-19T04:31:45.272Z,30.77
2022-10-19T04:34:12.628Z,30.02
2022-10-19T04:36:39.656Z,28.50
2022-10-19T04:39:08.265Z,29.90
2022-10-19T04:41:35.803Z,28.88
2022-10-19T04:44:06.772Z,27.80
2022-10-19T04:46:34.161Z,29.45
2022-10-19T04:49:01.300Z,28.15
2022-10-19T04:51:28.436Z,28.02
2022-10-19T04:53:59.666Z,27.45
2022-10-19T04:56:28.371Z,27.55
2022-10-19T04:58:59.479Z,27.33
2022-10-19T05:01:29.831Z,26.42
2022-10-19T05:04:00.686Z,27.10
2022-10-19T05:06:29.149Z,25.75
2022-10-19T05:08:56.873Z,27.33
2022-10-19T05:11:24.338Z,26.38
2022-10-19T05:13:52.209Z,27.73
2022-10-19T05:16:22.315Z,27.45
2022-10-19T05:18:59.101Z,28.95
2022-10-19T05:21:29.103Z,27.58
2022-10-19T05:23:57.329Z,29.00
2022-10-19T05:26:26.438Z,27.58
2022-10-19T05:28:57.094Z,28.42
2022-10-19T05:31:28.841Z,29.55
2022-10-19T05:33:56.572Z,28.92
2022-10-19T05:36:29.944Z,30.75
2022-10-19T05:38:57.918Z,30.20
2022-10-19T05:41:26.633Z,30.42
2022-10-19T05:44:01.714Z,32.55
2022-10-19T05:46:30.149Z,31.17
2022-10-19T05:48:58.635Z,30.75
2022-10-19T05:51:27.042Z,30.85
2022-10-19T05:53:55.428Z,29.13
2022-10-19T05:56:24.994Z,29.05
2022-10-19T05:58:52.971Z,29.13
2022-10-19T06:01:20.461Z,28.80
2022-10-19T06:03:51.210Z,28.42
2022-10-19T06:06:18.557Z,26.55
2022-10-19T06:08:45.623Z,26.08
2022-10-19T06:11:20.322Z,26.90
2022-10-19T06:13:49.757Z,26.35
2022-10-19T06:16:18.873Z,27.75
2022-10-19T06:18:46.159Z,24.65
2022-10-19T06:21:16.120Z,24.65
2022-10-19T06:26:15.195Z,24.88
2022-10-19T06:28:43.888Z,22.63
2022-10-19T06:31:11.440Z,22.88
2022-10-19T06:33:40.852Z,21.83
2022-10-19T06:36:14.036Z,21.23
2022-10-19T06:38:42.207Z,21.08
2022-10-19T06:41:10.093Z,19.80
2022-10-19T06:43:37.589Z,20.67
2022-10-19T06:46:07.151Z,18.23
2022-10-19T06:48:34.974Z,15.27
2022-10-19T06:51:06.320Z,15.50
2022-10-19T06:53:34.955Z,13.40
2022-10-19T06:56:04.388Z,12.68
2022-10-19T06:58:31.535Z,11.02
2022-10-19T07:01:00.213Z,11.68
2022-10-19T07:03:29.017Z,11.38
2022-10-19T07:05:57.897Z,11.13
2022-10-19T07:08:25.957Z,10.38
2022-10-19T07:10:55.219Z,9.02
2022-10-19T07:13:22.847Z,10.20
2022-10-19T07:15:50.254Z,9.75
2022-10-19T07:18:17.202Z,8.75
2022-10-19T07:20:53.552Z,9.00
2022-10-19T07:23:20.522Z,8.27
2022-10-19T07:25:47.444Z,8.20
2022-10-19T07:28:14.384Z,8.10
2022-10-19T07:30:41.369Z,8.10
2022-10-19T07:33:08.436Z,7.43
2022-10-19T07:35:37.188Z,6.75
2022-10-19T07:38:04.102Z,7.03
2022-10-19T07:40:30.989Z,6.50
2022-10-19T07:42:57.938Z,5.82
2022-10-19T07:45:24.975Z,6.28
2022-10-19T07:47:52.003Z,5.35
2022-10-19T07:50:19.157Z,6.10
2022-10-19T07:52:46.113Z,5.78
2022-10-19T07:55:13.016Z,6.40
2022-10-19T07:57:41.581Z,5.93
2022-10-19T08:00:11.637Z,5.95
2022-10-19T08:02:54.752Z,6.40
2022-10-19T08:05:25.610Z,5.43
2022-10-19T08:07:52.706Z,6.32
2022-10-19T08:10:19.717Z,6.05
2022-10-19T08:12:46.747Z,5.38
2022-10-19T08:15:13.753Z,5.63
2022-10-19T08:17:40.786Z,5.43
2022-10-19T08:20:08.369Z,5.05
2022-10-19T08:22:35.418Z,5.18
2022-10-19T08:25:03.991Z,4.78
2022-10-19T08:27:30.997Z,5.07
2022-10-19T08:29:58.009Z,4.80
2022-10-19T08:32:25.001Z,4.28
2022-10-19T08:34:51.907Z,4.07
2022-10-19T08:37:26.312Z,3.95
2022-10-19T08:39:59.910Z,4.43
2022-10-19T08:42:48.117Z,3.83
2022-10-19T08:45:31.895Z,4.07
2022-10-19T08:48:30.350Z,4.20
2022-10-19T08:50:59.473Z,3.90
2022-10-19T08:53:38.493Z,3.60
2022-10-19T08:56:45.658Z,3.78
2022-10-19T08:59:16.303Z,3.35
2022-10-19T09:02:14.386Z,3.50
2022-10-19T09:04:47.259Z,3.50
2022-10-19T09:07:31.353Z,3.63
2022-10-19T09:12:40.499Z,3.33
2022-10-19T09:15:18.191Z,3.38
2022-10-19T09:17:45.354Z,3.45
2022-10-19T09:20:23.049Z,3.67
2022-10-19T09:23:22.255Z,3.72
2022-10-19T09:25:51.777Z,3.67
2022-10-19T09:28:45.337Z,3.70
2022-10-19T09:31:44.821Z,3.70
2022-10-19T09:34:27.165Z,3.60
2022-10-19T09:36:57.638Z,3.17
2022-10-19T09:39:29.486Z,3.67
2022-10-19T09:42:01.246Z,3.63
2022-10-19T09:44:28.284Z,3.50
2022-10-19T09:47:19.979Z,3.22
2022-10-19T09:49:49.359Z,3.30
2022-10-19T09:52:37.247Z,3.15
2022-10-19T09:55:17.008Z,2.90
2022-10-19T09:57:45.674Z,3.00
2022-10-19T10:00:25.577Z,3.03
2022-10-19T10:02:54.675Z,2.47
2022-10-19T10:05:40.194Z,2.60
2022-10-19T10:08:17.135Z,2.67
2022-10-19T10:10:47.869Z,2.75
2022-10-19T10:13:21.263Z,2.40
2022-10-19T10:16:00.606Z,2.50
2022-10-19T10:18:30.025Z,2.10
2022-10-19T10:20:59.136Z,1.92
2022-10-19T10:23:31.297Z,2.13
2022-10-19T10:26:00.362Z,1.65
2022-10-19T10:28:29.924Z,1.75
2022-10-19T10:31:03.931Z,1.20
2022-10-19T10:36:28.078Z,1.40
2022-10-19T10:39:16.434Z,1.40
2022-10-19T10:41:46.549Z,1.90
2022-10-19T10:44:26.757Z,1.40
2022-10-19T10:47:01.504Z,2.03
2022-10-19T10:49:37.878Z,1.40
2022-10-19T10:52:12.316Z,1.85
2022-10-19T10:54:39.511Z,2.10
2022-10-19T10:57:10.212Z,1.23
2022-10-19T10:59:45.870Z,1.42
2022-10-19T11:02:34.294Z,1.40
2022-10-19T11:05:12.343Z,1.13
2022-10-19T11:07:45.182Z,1.30
2022-10-19T11:10:16.717Z,1.70
2022-10-19T11:12:58.037Z,1.00
2022-10-19T11:15:48.109Z,1.08
2022-10-19T11:18:25.458Z,1.55
2022-10-19T11:21:13.357Z,1.30
2022-10-19T11:24:02.855Z,1.60
2022-10-19T11:26:48.670Z,1.42
2022-10-19T11:29:46.432Z,1.33
2022-10-19T11:32:35.883Z,1.40
2022-10-19T11:35:28.824Z,1.40
2022-10-19T11:38:30.191Z,1.25
2022-10-19T11:41:22.212Z,1.20
2022-10-19T11:44:18.028Z,1.15
2022-10-19T11:46:57.681Z,1.40
2022-10-19T11:49:48.346Z,1.30
2022-10-19T11:52:46.796Z,1.30
2022-10-19T11:55:46.247Z,1.27
2022-10-19T11:58:42.726Z,1.30
2022-10-19T12:01:34.582Z,1.45
2022-10-19T12:04:04.690Z,0.90
2022-10-19T12:06:49.593Z,0.70
2022-10-19T12:09:57.904Z,0.80
2022-10-19T12:12:37.913Z,1.05
2022-10-19T12:15:23.938Z,1.20
2022-10-19T12:17:54.275Z,0.98
2022-10-19T12:20:42.317Z,1.25
2022-10-19T12:23:26.774Z,1.00
2022-10-19T12:25:56.579Z,1.10
2022-10-19T12:28:36.243Z,0.93
2022-10-19T12:31:06.369Z,1.17
2022-10-19T12:33:47.490Z,1.08
2022-10-19T12:36:14.557Z,1.77
2022-10-19T12:39:09.327Z,1.00
2022-10-19T12:41:55.087Z,0.82
2022-10-19T12:44:43.116Z,1.00
2022-10-19T12:47:19.681Z,0.73
2022-10-19T12:49:49.668Z,1.00
2022-10-19T12:52:41.753Z,1.20
2022-10-19T12:55:31.793Z,1.00
2022-10-19T12:58:21.189Z,1.05
2022-10-19T13:01:13.533Z,1.08
2022-10-19T13:03:44.717Z,0.90
2022-10-19T13:06:16.044Z,1.00
2022-10-19T13:08:48.924Z,1.38
2022-10-19T13:11:16.085Z,0.90
2022-10-19T13:14:20.259Z,1.27
2022-10-19T13:17:01.498Z,1.73
2022-10-19T13:19:28.850Z,1.38
2022-10-19T13:22:01.897Z,1.20
2022-10-19T13:24:33.411Z,1.33
2022-10-19T13:27:03.261Z,1.30
2022-10-19T13:29:39.725Z,1.23
2022-10-19T13:32:45.050Z,1.10
2022-10-19T13:35:33.670Z,1.33
2022-10-19T13:38:09.765Z,1.00
2022-10-19T13:40:39.128Z,0.88
2022-10-19T13:43:06.099Z,1.02
2022-10-19T13:45:33.117Z,1.00
2022-10-19T13:48:15.737Z,1.30
2022-10-19T13:51:15.400Z,1.13
2022-10-19T13:54:03.434Z,1.70
2022-10-19T13:57:15.246Z,1.45
2022-10-19T14:00:10.394Z,6.22
2022-10-19T14:02:55.675Z,16.35
2022-10-19T14:05:40.938Z,1.73
2022-10-19T14:08:30.246Z,6.75
2022-10-19T14:11:04.473Z,2.58
2022-10-19T14:13:31.750Z,1.70
2022-10-19T14:16:01.759Z,1.90
2022-10-19T14:18:33.089Z,2.45
2022-10-19T14:21:09.402Z,1.90
2022-10-19T14:23:40.634Z,1.52
2022-10-19T14:26:15.085Z,1.80
2022-10-19T14:28:43.332Z,1.63
2022-10-19T14:31:18.524Z,1.50
2022-10-19T14:33:53.747Z,1.70
2022-10-19T14:36:24.026Z,2.10
2022-10-19T14:38:55.424Z,2.35
2022-10-19T14:44:03.067Z,2.05
2022-10-19T14:46:32.545Z,1.98
2022-10-19T14:49:02.522Z,2.40
2022-10-19T14:51:49.523Z,2.22
2022-10-19T14:54:23.969Z,1.92
2022-10-19T14:56:57.923Z,3.10
2022-10-19T14:59:32.516Z,2.00
2022-10-19T15:02:02.547Z,2.17
2022-10-19T15:04:33.989Z,2.30
2022-10-19T15:07:05.019Z,19.30
2022-10-19T15:09:47.784Z,2.40
2022-10-19T15:12:19.395Z,7.03
2022-10-19T15:14:48.181Z,2.22
2022-10-19T15:17:26.479Z,5.53
2022-10-19T15:19:55.912Z,4.38
2022-10-19T15:22:38.396Z,3.35
2022-10-19T15:25:08.508Z,2.75
2022-10-19T15:27:38.125Z,3.30
2022-10-19T15:30:28.664Z,2.40
2022-10-19T15:33:13.517Z,7.43
2022-10-19T15:35:44.329Z,7.90
2022-10-19T15:38:14.986Z,7.75
2022-10-19T15:40:45.847Z,7.57
2022-10-19T15:43:31.333Z,7.47
2022-10-19T15:46:01.374Z,4.28
2022-10-19T15:48:45.057Z,5.57
2022-10-19T15:51:27.214Z,7.50
2022-10-19T15:54:04.541Z,5.95
2022-10-19T15:56:34.914Z,4.40
2022-10-19T15:59:05.945Z,4.40
2022-10-19T16:01:34.138Z,10.45
2022-10-19T16:04:02.513Z,24.40
2022-10-19T16:06:33.303Z,9.32
2022-10-19T16:09:01.188Z,8.32
2022-10-19T16:11:30.544Z,9.73
2022-10-19T16:13:58.926Z,8.18
2022-10-19T16:16:30.264Z,8.98
2022-10-19T16:18:59.062Z,7.07
2022-10-19T16:21:32.540Z,7.63
2022-10-19T16:24:00.806Z,5.93
2022-10-19T16:26:29.140Z,7.28
2022-10-19T16:28:56.705Z,6.72
2022-10-19T16:31:25.257Z,5.60
2022-10-19T16:33:52.444Z,7.15
2022-10-19T16:36:20.842Z,10.43
2022-10-19T16:38:49.227Z,9.90
2022-10-19T16:41:17.382Z,4.47
2022-10-19T16:43:44.546Z,6.57
2022-10-19T16:46:11.852Z,5.60
2022-10-19T16:48:39.829Z,5.90
2022-10-19T16:51:13.089Z,4.80
2022-10-19T16:53:40.476Z,3.50
2022-10-19T16:56:11.767Z,5.30
2022-10-19T16:58:41.735Z,4.25
2022-10-19T17:01:16.097Z,4.93
2022-10-19T17:03:46.289Z,3.90
2022-10-19T17:06:14.348Z,3.78
2022-10-19T17:11:33.739Z,3.67
2022-10-19T17:14:04.051Z,3.42
2022-10-19T17:16:36.308Z,5.55
2022-10-19T17:19:07.303Z,3.90
2022-10-19T17:21:39.330Z,4.40
2022-10-19T17:24:08.669Z,4.03
2022-10-19T17:26:43.513Z,3.80
2022-10-19T17:29:11.154Z,4.07
2022-10-19T17:31:40.543Z,6.55
2022-10-19T17:34:09.481Z,5.80
2022-10-19T17:39:18.587Z,10.65
2022-10-19T17:41:48.174Z,8.93
2022-10-19T17:44:18.818Z,8.73
2022-10-19T17:46:48.674Z,10.73
2022-10-19T17:49:17.105Z,7.82
2022-10-19T17:51:44.491Z,8.80
2022-10-19T17:54:17.049Z,7.88
2022-10-19T17:56:47.247Z,7.22
2022-10-19T17:59:14.776Z,6.72
2022-10-19T18:01:42.466Z,6.95
2022-10-19T18:04:10.114Z,5.45
2022-10-19T18:06:39.109Z,5.85
2022-10-19T18:09:09.682Z,6.55
2022-10-19T18:11:45.913Z,9.32
2022-10-19T18:14:14.293Z,10.27
2022-10-19T18:16:47.413Z,16.35
2022-10-19T18:19:17.529Z,10.95
2022-10-19T18:21:47.550Z,11.32
2022-10-19T18:24:20.034Z,6.82
2022-10-19T18:26:50.145Z,7.15
2022-10-19T18:29:22.405Z,8.85
2022-10-19T18:31:53.221Z,9.20
2022-10-19T18:34:26.692Z,11.57
2022-10-19T18:36:55.222Z,7.32
2022-10-19T18:39:24.638Z,6.30
2022-10-19T18:41:55.202Z,5.82
2022-10-19T18:44:27.255Z,8.35
2022-10-19T18:46:59.849Z,6.75
2022-10-19T18:49:28.084Z,5.55
2022-10-19T18:52:00.159Z,7.15
2022-10-19T18:54:28.645Z,6.20
2022-10-19T18:56:58.476Z,6.22
2022-10-19T19:01:56.189Z,6.00
2022-10-19T19:04:23.429Z,6.55
2022-10-19T19:06:53.407Z,7.32
2022-10-19T19:09:21.928Z,6.80
2022-10-19T19:11:49.400Z,11.98
2022-10-19T19:14:21.764Z,19.20
2022-10-19T19:16:50.933Z,29.08
2022-10-19T19:19:20.786Z,26.77
2022-10-19T19:21:50.576Z,25.23
2022-10-19T19:24:20.343Z,23.00
2022-10-19T19:26:52.202Z,20.60
2022-10-19T19:29:21.129Z,19.35
2022-10-19T19:31:49.861Z,14.85
2022-10-19T19:34:24.733Z,12.35
2022-10-19T19:36:52.235Z,19.30
2022-10-19T19:39:22.801Z,31.55
2022-10-19T19:41:51.321Z,17.33
2022-10-19T19:44:19.829Z,21.98
2022-10-19T19:46:48.363Z,19.10
2022-10-19T19:49:21.463Z,32.53
2022-10-19T19:51:49.992Z,34.95
2022-10-19T19:54:17.835Z,23.27
2022-10-19T19:56:45.947Z,20.90
2022-10-19T19:59:14.454Z,12.82
2022-10-19T20:01:44.199Z,10.02
2022-10-19T20:04:12.060Z,5.47
2022-10-19T20:06:41.754Z,5.85
2022-10-19T20:09:13.646Z,10.35
2022-10-19T20:11:54.202Z,9.32
2022-10-19T20:14:24.820Z,8.77
2022-10-19T20:16:52.356Z,6.57
2022-10-19T20:19:22.805Z,8.65
2022-10-19T20:21:51.584Z,6.82
2022-10-19T20:24:20.052Z,8.45
2022-10-19T20:26:52.602Z,8.30
2022-10-19T20:29:22.309Z,7.10
2022-10-19T20:31:53.746Z,8.35
2022-10-19T20:34:23.155Z,7.60
2022-10-19T20:36:58.454Z,7.93
2022-10-19T20:39:30.007Z,8.38
2022-10-19T20:41:57.154Z,8.32
2022-10-19T20:44:24.539Z,8.52
2022-10-19T20:46:59.433Z,7.80
2022-10-19T20:49:28.492Z,6.32
2022-10-19T20:51:56.015Z,6.88
2022-10-19T20:54:23.243Z,7.43
2022-10-19T20:56:50.185Z,6.85
2022-10-19T20:59:19.342Z,8.95
2022-10-19T21:01:52.692Z,14.65
2022-10-19T21:04:26.438Z,22.20
2022-10-19T21:07:00.355Z,23.50
2022-10-19T21:09:27.423Z,19.70
2022-10-19T21:11:54.453Z,12.15
2022-10-19T21:14:28.334Z,6.80
2022-10-19T21:16:58.597Z,10.40
2022-10-19T21:19:31.347Z,8.52
2022-10-19T21:22:04.427Z,8.50
2022-10-19T21:24:35.606Z,7.13
2022-10-19T21:27:06.828Z,7.18
2022-10-19T21:29:37.414Z,7.10
2022-10-19T21:32:12.262Z,7.43
2022-10-19T21:34:39.286Z,7.45
2022-10-19T21:37:07.326Z,7.55
2022-10-19T21:39:34.474Z,7.82
2022-10-19T21:42:02.867Z,12.15
2022-10-19T21:44:30.809Z,13.15
2022-10-19T21:46:59.854Z,13.73
2022-10-19T21:49:34.869Z,12.48
2022-10-19T21:52:01.943Z,12.32
2022-10-19T21:54:29.926Z,11.20
2022-10-19T21:57:08.789Z,10.88
2022-10-19T21:59:35.855Z,11.25
2022-10-19T22:02:04.881Z,10.40
2022-10-19T22:04:32.823Z,9.88
2022-10-19T22:07:01.617Z,14.90
2022-10-19T22:09:31.667Z,18.73
2022-10-19T22:11:58.699Z,15.70
2022-10-19T22:14:25.727Z,10.48
2022-10-19T22:16:53.783Z,42.30
2022-10-19T22:19:23.946Z,42.22
2022-10-19T22:22:02.089Z,11.90
2022-10-19T22:24:29.080Z,8.02
2022-10-19T22:27:01.883Z,19.77
2022-10-19T22:29:28.905Z,16.73
2022-10-19T22:31:57.923Z,21.73
2022-10-19T22:34:29.096Z,15.23
2022-10-19T22:37:01.316Z,11.18
2022-10-19T22:39:30.279Z,10.32
2022-10-19T22:42:25.367Z,25.42
2022-10-19T22:44:52.386Z,8.32
2022-10-19T22:47:19.474Z,8.93
2022-10-19T22:49:54.582Z,8.18
2022-10-19T22:52:22.624Z,7.80
2022-10-19T22:54:51.433Z,11.38
2022-10-19T22:57:18.489Z,8.32
2022-10-19T22:59:51.347Z,9.65
2022-10-19T23:02:19.319Z,11.93
2022-10-19T23:04:46.427Z,9.35
2022-10-19T23:07:14.471Z,9.50
2022-10-19T23:09:45.473Z,9.85
2022-10-19T23:12:12.539Z,10.43
2022-10-19T23:14:40.519Z,9.77
2022-10-19T23:17:07.599Z,6.93
2022-10-19T23:19:36.696Z,8.65
2022-10-19T23:22:12.817Z,12.35
2022-10-19T23:24:45.012Z,10.90
2022-10-19T23:27:19.110Z,9.23
2022-10-19T23:29:47.238Z,10.75
2022-10-19T23:32:16.413Z,9.65
2022-10-19T23:34:47.484Z,7.78
2022-10-19T23:37:17.766Z,9.60
2022-10-19T23:39:44.800Z,26.58
2022-10-19T23:42:11.799Z,14.57
2022-10-19T23:44:39.792Z,9.98
2022-10-19T23:47:07.777Z,22.20
2022-10-19T23:49:34.806Z,17.83
2022-10-19T23:52:05.983Z,10.18
2022-10-19T23:54:39.149Z,9.38
2022-10-19T23:57:12.984Z,8.27
2022-10-19T23:59:41.064Z,9.02
